Virginiborg — PBDL — position and weather

sailwx.info

Track history (hours):
 
Tides and Currents Weather Stations Pressure Air Temp Water Temp Dewpoint Dewpoint Depression Visibility Wind Speed Wind Dir Waves Ship Positions

Virginiborg

Last reported at 2015-Jan-30 18:27 UTC. Time now 2015-Jan-31 13:13 UTC.
Position N 50°21' W 000°58'.

Length 132 m; draft 7.7 m.

Type: Cargo ship. MMSI: 244632000.

Date/timePositionNaut miles runAvg speedWind from/ knotsBaromVisibWave heightAir tempDewpointWater temp
2015-Jan-30 18:27N 50°21' W 000°58'9 9.4
2015-Jan-30 17:31N 50°24' W 000°45'10 9.7
2015-Jan-30 16:28N 50°27' W 000°30'2010.6
2015-Jan-30 14:33N 50°32' E 000°01'1212.1
2015-Jan-30 13:33N 50°36' E 000°20'1212.3
2015-Jan-30 12:33N 50°40' E 000°38'1212.4
2015-Jan-30 11:33N 50°47' E 000°54'1411.8
2015-Jan-30 10:22N 50°55' E 001°11'911.1
2015-Jan-30 09:33N 51°01' E 001°22'1010.2
2015-Jan-30 08:33N 51°08' E 001°35'1110.6
2015-Jan-30 07:33N 51°15' E 001°47'1212.1
2015-Jan-30 06:34N 51°26' E 001°56'1312.5
2015-Jan-30 05:33N 51°35' E 002°09'9511.8
2015-Jan-29 21:32N 52°49' E 003°47'1111.6
2015-Jan-29 20:33N 52°57' E 003°59'1211.8
2015-Jan-29 19:33N 53°05' E 004°15'40 9.5
2015-Jan-29 15:18N 53°34' E 005°01'5 6.5
2015-Jan-29 14:31N 53°35' E 005°09'6 6.1
2015-Jan-29 13:33N 53°37' E 005°19'5 5.4
2015-Jan-29 12:33N 53°39' E 005°27'5 4.7
2015-Jan-29 11:33N 53°41' E 005°35'5 4.7
2015-Jan-29 10:33N 53°42' E 005°42'5 5.5
2015-Jan-29 09:33N 53°44' E 005°51'7 6.3
2015-Jan-29 08:24N 53°46' E 006°02'37 4.6
2015-Jan-29 00:15N 53°55' E 007°04'12 5.9
2015-Jan-28 22:10N 53°58' E 007°24'5 7.6
2015-Jan-28 21:33N 53°59' E 007°32'9 7.2
2015-Jan-28 20:22N 53°55' E 007°44'8 9.4
2015-Jan-28 19:32N 53°52' E 007°56'9 9.2
2015-Jan-28 18:33N 53°47' E 008°09'1010.3
2015-Jan-28 17:33N 53°40' E 008°23'1010.3
2015-Jan-28 16:34N 53°32' E 008°34'9 9.3
2015-Jan-28 15:33N 53°23' E 008°30'3 3.5
2015-Jan-28 14:33N 53°20' E 008°29'0 0.0
2015-Jan-28 13:20N 53°20' E 008°29'0 0.0
2015-Jan-28 12:14N 53°20' E 008°29'0 0.0
2015-Jan-28 11:23N 53°20' E 008°29'0 0.0
2015-Jan-28 10:19N 53°20' E 008°29'0 0.0
2015-Jan-28 09:28N 53°20' E 008°29'0 0.0
2015-Jan-28 08:33N 53°20' E 008°29'0 0.0
2015-Jan-28 07:30N 53°20' E 008°29'0 0.0
2015-Jan-28 05:32N 53°20' E 008°29'0 0.0
2015-Jan-28 04:23N 53°20' E 008°29'0 0.0
2015-Jan-28 03:28N 53°20' E 008°29'0 0.0
2015-Jan-28 02:10N 53°20' E 008°29'0 0.0
2015-Jan-28 01:27N 53°20' E 008°29'0 0.0
2015-Jan-27 22:29N 53°20' E 008°29'0 0.0
2015-Jan-27 21:26N 53°20' E 008°29'0 0.0
2015-Jan-27 20:10N 53°20' E 008°29'0 0.0
2015-Jan-27 16:06N 53°20' E 008°29'0 0.0
2015-Jan-27 15:21N 53°20' E 008°29'0 0.0
2015-Jan-27 11:33N 53°20' E 008°29'0 0.0
2015-Jan-27 10:27N 53°20' E 008°29'0 0.0
2015-Jan-27 09:33N 53°20' E 008°29'0 0.0
2015-Jan-27 06:17N 53°20' E 008°29'0 0.0
2015-Jan-27 04:25N 53°20' E 008°29'0 0.0
2015-Jan-27 03:15N 53°20' E 008°29'0 0.0
2015-Jan-27 02:21N 53°20' E 008°29'0 0.0
2015-Jan-27 01:33N 53°20' E 008°29'0 0.0
2015-Jan-27 00:33N 53°20' E 008°29'0 0.0
2015-Jan-26 23:20N 53°20' E 008°29'0 0.0
2015-Jan-26 22:20N 53°20' E 008°29'0 0.0
2015-Jan-26 21:25N 53°20' E 008°29'0 0.0
2015-Jan-26 20:28N 53°20' E 008°29'0 0.0
2015-Jan-26 19:32N 53°20' E 008°29'0 0.0
2015-Jan-26 18:13N 53°20' E 008°29'0 0.0
2015-Jan-26 17:31N 53°20' E 008°29'0 0.0
2015-Jan-26 15:31N 53°20' E 008°29'0 0.0
2015-Jan-26 14:31N 53°20' E 008°29'0 0.0
2015-Jan-26 13:33N 53°20' E 008°29'0 0.0
2015-Jan-26 12:33N 53°20' E 008°29'0 0.0
2015-Jan-26 11:14N 53°20' E 008°29'0 0.0
2015-Jan-26 10:14N 53°20' E 008°29'0 0.0
2015-Jan-26 09:31N 53°20' E 008°29'0 0.0
2015-Jan-26 08:04N 53°20' E 008°29'0 0.0
2015-Jan-26 07:21N 53°20' E 008°29'0 0.0
2015-Jan-26 06:33N 53°20' E 008°29'0 0.0
2015-Jan-26 05:30N 53°20' E 008°29'0 0.0
2015-Jan-26 04:29N 53°20' E 008°29'0 0.0
2015-Jan-26 03:26N 53°20' E 008°29'0 0.0
2015-Jan-26 02:31N 53°20' E 008°29'0 0.0
2015-Jan-25 21:26N 53°20' E 008°29'0 0.0
2015-Jan-25 20:29N 53°20' E 008°29'0 0.0
2015-Jan-25 19:29N 53°20' E 008°29'0 0.0
2015-Jan-25 18:32N 53°20' E 008°29'0 0.0
2015-Jan-25 17:28N 53°20' E 008°29'0 0.0
2015-Jan-25 16:32N 53°20' E 008°29'0 0.0
2015-Jan-25 15:20N 53°20' E 008°29'0 0.0
2015-Jan-25 14:28N 53°20' E 008°29'0 0.0
2015-Jan-25 13:28N 53°20' E 008°29'0 0.0
2015-Jan-25 12:33N 53°20' E 008°29'0 0.0
2015-Jan-25 11:33N 53°20' E 008°29'0 0.0
2015-Jan-25 10:33N 53°20' E 008°29'7 7.4
2015-Jan-25 09:33N 53°12' E 008°30'9 9.0
2015-Jan-25 08:33N 53°07' E 008°43'1 1.0
2015-Jan-25 07:32N 53°07' E 008°44'0 0.0
2015-Jan-25 06:31N 53°07' E 008°44'0 0.0
2015-Jan-25 05:31N 53°07' E 008°44'0 0.0
2015-Jan-25 04:33N 53°07' E 008°44'0 0.0
2015-Jan-25 03:33N 53°07' E 008°44'0 0.0
2015-Jan-25 02:32N 53°07' E 008°44'0 0.0
2015-Jan-25 01:32N 53°07' E 008°44'0 0.0
2015-Jan-25 00:32N 53°07' E 008°44'0 0.0
2015-Jan-24 23:31N 53°07' E 008°44'0 0.0
2015-Jan-24 22:31N 53°07' E 008°44'0 0.0
2015-Jan-24 21:33N 53°07' E 008°44'0 0.0
2015-Jan-24 20:33N 53°07' E 008°44'0 0.0
2015-Jan-24 19:32N 53°07' E 008°44'0 0.0
2015-Jan-24 18:32N 53°07' E 008°44'0 0.0
2015-Jan-24 17:32N 53°07' E 008°44'0 0.0
2015-Jan-24 16:31N 53°07' E 008°44'0 0.0
2015-Jan-24 15:31N 53°07' E 008°44'0 0.0
2015-Jan-24 14:33N 53°07' E 008°44'0 0.0
2015-Jan-24 13:33N 53°07' E 008°44'0 0.0
2015-Jan-24 12:32N 53°07' E 008°44'0 0.0
2015-Jan-24 11:29N 53°07' E 008°44'0 0.0
2015-Jan-24 10:32N 53°07' E 008°44'0 0.0
2015-Jan-24 09:31N 53°07' E 008°44'0 0.0
2015-Jan-24 08:31N 53°07' E 008°44'0 0.0
2015-Jan-24 07:33N 53°07' E 008°44'0 0.0
2015-Jan-24 06:33N 53°07' E 008°44'0 0.0
2015-Jan-24 05:32N 53°07' E 008°44'0 0.0
2015-Jan-24 04:32N 53°07' E 008°44'0 0.0
2015-Jan-24 03:31N 53°07' E 008°44'0 0.0
2015-Jan-24 02:31N 53°07' E 008°44'0 0.0
2015-Jan-24 01:31N 53°07' E 008°44'0 0.0
2015-Jan-24 00:33N 53°07' E 008°44'0 0.0
2015-Jan-23 23:33N 53°07' E 008°44'0 0.0
2015-Jan-23 22:32N 53°07' E 008°44'0 0.0
2015-Jan-23 21:32N 53°07' E 008°44'0 0.0
2015-Jan-23 20:32N 53°07' E 008°44'0 0.0
2015-Jan-23 19:31N 53°07' E 008°44'0 0.0
2015-Jan-23 18:31N 53°07' E 008°44'0 0.0
2015-Jan-23 17:33N 53°07' E 008°44'0 0.0
2015-Jan-23 16:33N 53°07' E 008°44'0 0.0
2015-Jan-23 15:32N 53°07' E 008°44'0 0.0
2015-Jan-23 14:31N 53°07' E 008°44'0 0.0
2015-Jan-23 13:33N 53°07' E 008°44'0 0.0
2015-Jan-23 12:33N 53°07' E 008°44'0 0.0
2015-Jan-23 11:32N 53°07' E 008°44'0 0.0
2015-Jan-23 10:32N 53°07' E 008°44'0 0.0
2015-Jan-23 09:31N 53°07' E 008°44'0 0.0
2015-Jan-23 08:31N 53°07' E 008°44'0 0.0
2015-Jan-23 07:34N 53°07' E 008°44'0 0.0
2015-Jan-23 06:33N 53°07' E 008°44'0 0.0
2015-Jan-23 05:30N 53°07' E 008°44'0 0.0
2015-Jan-23 04:32N 53°07' E 008°44'0 0.0
2015-Jan-23 03:32N 53°07' E 008°44'0 0.0
2015-Jan-23 02:32N 53°07' E 008°44'0 0.0
2015-Jan-23 01:28N 53°07' E 008°44'0 0.0
2015-Jan-23 00:33N 53°07' E 008°44'0 0.0
2015-Jan-22 23:33N 53°07' E 008°44'0 0.0
2015-Jan-22 22:33N 53°07' E 008°44'0 0.0
2015-Jan-22 21:32N 53°07' E 008°44'0 0.0
2015-Jan-22 20:32N 53°07' E 008°44'0 0.0
2015-Jan-22 19:31N 53°07' E 008°44'0 0.0
2015-Jan-22 18:31N 53°07' E 008°44'0 0.0
2015-Jan-22 17:33N 53°07' E 008°44'0 0.0
2015-Jan-22 16:33N 53°07' E 008°44'0 0.0
2015-Jan-22 15:33N 53°07' E 008°44'0 0.0
2015-Jan-22 14:32N 53°07' E 008°44'0 0.0
2015-Jan-22 13:32N 53°07' E 008°44'0 0.0
2015-Jan-22 12:31N 53°07' E 008°44'0 0.0
2015-Jan-22 11:31N 53°07' E 008°44'0 0.0
2015-Jan-22 10:33N 53°07' E 008°44'0 0.0
2015-Jan-22 09:33N 53°07' E 008°44'0 0.1
2015-Jan-22 08:33N 53°07' E 008°44'1 0.8
2015-Jan-22 07:29N 53°08' E 008°43'0 0.0
2015-Jan-22 06:29N 53°08' E 008°43'0 0.0
2015-Jan-22 05:31N 53°08' E 008°43'0 0.0
2015-Jan-22 04:31N 53°08' E 008°43'0 0.0
2015-Jan-22 03:33N 53°08' E 008°43'0 0.0
2015-Jan-22 02:27N 53°08' E 008°43'0 0.0
2015-Jan-22 01:33N 53°08' E 008°43'0 0.0
2015-Jan-22 00:32N 53°08' E 008°43'0 0.0
2015-Jan-21 23:32N 53°08' E 008°43'0 0.0
2015-Jan-21 22:49N 53°08' E 008°43'0 0.0
2015-Jan-21 22:46N 53°08' E 008°43'0 0.0
2015-Jan-21 22:31N 53°08' E 008°43'0 0.0
2015-Jan-21 21:31N 53°08' E 008°43'0 0.0
2015-Jan-21 20:33N 53°08' E 008°43'0 0.0
2015-Jan-21 19:33N 53°08' E 008°43'0 0.0
2015-Jan-21 18:33N 53°08' E 008°43'0 0.0
2015-Jan-21 17:32N 53°08' E 008°43'0 0.0
2015-Jan-21 16:32N 53°08' E 008°43'0 0.0
2015-Jan-21 15:31N 53°08' E 008°43'0 0.0
2015-Jan-21 14:31N 53°08' E 008°43'0 0.0
2015-Jan-21 13:31N 53°08' E 008°43'0 0.0
2015-Jan-21 12:31N 53°08' E 008°43'0 0.0
2015-Jan-21 11:31N 53°08' E 008°43'0 0.0
2015-Jan-21 10:33N 53°08' E 008°43'0 0.0
2015-Jan-21 09:33N 53°08' E 008°43'0 0.0
2015-Jan-21 08:32N 53°08' E 008°43'0 0.0
2015-Jan-21 07:32N 53°08' E 008°43'0 0.0
2015-Jan-21 06:31N 53°08' E 008°43'0 0.0
2015-Jan-21 05:31N 53°08' E 008°43'0 0.0
2015-Jan-21 04:31N 53°08' E 008°43'0 0.0
2015-Jan-21 03:33N 53°08' E 008°43'0 0.0
2015-Jan-21 02:33N 53°08' E 008°43'0 0.0
2015-Jan-21 01:32N 53°08' E 008°43'0 0.0
2015-Jan-21 00:32N 53°08' E 008°43'0 0.0
2015-Jan-20 23:31N 53°08' E 008°43'0 0.0
2015-Jan-20 22:31N 53°08' E 008°43'0 0.0
2015-Jan-20 21:31N 53°08' E 008°43'0 0.0
2015-Jan-20 20:33N 53°08' E 008°43'0 0.0
2015-Jan-20 19:33N 53°08' E 008°43'0 0.0
2015-Jan-20 18:32N 53°08' E 008°43'  
Track history (hours):
 
Tides and Currents Weather Stations Pressure Air Temp Water Temp Dewpoint Dewpoint Depression Visibility Wind Speed Wind Dir Waves Ship Positions

Virginiborg

Last reported at 2015-Jan-30 18:27 UTC. Time now 2015-Jan-31 13:13 UTC.
Position N 50°21' W 000°58'.

Length 132 m; draft 7.7 m.

Type: Cargo ship. MMSI: 244632000.

Date/timePositionNaut miles runAvg speedWind from/ knotsBaromVisibWave heightAir tempDewpointWater temp
2015-Jan-30 18:27N 50°21' W 000°58'9 9.4
2015-Jan-30 17:31N 50°24' W 000°45'10 9.7
2015-Jan-30 16:28N 50°27' W 000°30'2010.6
2015-Jan-30 14:33N 50°32' E 000°01'1212.1
2015-Jan-30 13:33N 50°36' E 000°20'1212.3
2015-Jan-30 12:33N 50°40' E 000°38'1212.4
2015-Jan-30 11:33N 50°47' E 000°54'1411.8
2015-Jan-30 10:22N 50°55' E 001°11'911.1
2015-Jan-30 09:33N 51°01' E 001°22'1010.2
2015-Jan-30 08:33N 51°08' E 001°35'1110.6
2015-Jan-30 07:33N 51°15' E 001°47'1212.1
2015-Jan-30 06:34N 51°26' E 001°56'1312.5
2015-Jan-30 05:33N 51°35' E 002°09'9511.8
2015-Jan-29 21:32N 52°49' E 003°47'1111.6
2015-Jan-29 20:33N 52°57' E 003°59'1211.8
2015-Jan-29 19:33N 53°05' E 004°15'40 9.5
2015-Jan-29 15:18N 53°34' E 005°01'5 6.5
2015-Jan-29 14:31N 53°35' E 005°09'6 6.1
2015-Jan-29 13:33N 53°37' E 005°19'5 5.4
2015-Jan-29 12:33N 53°39' E 005°27'5 4.7
2015-Jan-29 11:33N 53°41' E 005°35'5 4.7
2015-Jan-29 10:33N 53°42' E 005°42'5 5.5
2015-Jan-29 09:33N 53°44' E 005°51'7 6.3
2015-Jan-29 08:24N 53°46' E 006°02'37 4.6
2015-Jan-29 00:15N 53°55' E 007°04'12 5.9
2015-Jan-28 22:10N 53°58' E 007°24'5 7.6
2015-Jan-28 21:33N 53°59' E 007°32'9 7.2
2015-Jan-28 20:22N 53°55' E 007°44'8 9.4
2015-Jan-28 19:32N 53°52' E 007°56'9 9.2
2015-Jan-28 18:33N 53°47' E 008°09'1010.3
2015-Jan-28 17:33N 53°40' E 008°23'1010.3
2015-Jan-28 16:34N 53°32' E 008°34'9 9.3
2015-Jan-28 15:33N 53°23' E 008°30'3 3.5
2015-Jan-28 14:33N 53°20' E 008°29'0 0.0
2015-Jan-28 13:20N 53°20' E 008°29'0 0.0
2015-Jan-28 12:14N 53°20' E 008°29'0 0.0
2015-Jan-28 11:23N 53°20' E 008°29'0 0.0
2015-Jan-28 10:19N 53°20' E 008°29'0 0.0
2015-Jan-28 09:28N 53°20' E 008°29'0 0.0
2015-Jan-28 08:33N 53°20' E 008°29'0 0.0
2015-Jan-28 07:30N 53°20' E 008°29'0 0.0
2015-Jan-28 05:32N 53°20' E 008°29'0 0.0
2015-Jan-28 04:23N 53°20' E 008°29'0 0.0
2015-Jan-28 03:28N 53°20' E 008°29'0 0.0
2015-Jan-28 02:10N 53°20' E 008°29'0 0.0
2015-Jan-28 01:27N 53°20' E 008°29'0 0.0
2015-Jan-27 22:29N 53°20' E 008°29'0 0.0
2015-Jan-27 21:26N 53°20' E 008°29'0 0.0
2015-Jan-27 20:10N 53°20' E 008°29'0 0.0
2015-Jan-27 16:06N 53°20' E 008°29'0 0.0
2015-Jan-27 15:21N 53°20' E 008°29'0 0.0
2015-Jan-27 11:33N 53°20' E 008°29'0 0.0
2015-Jan-27 10:27N 53°20' E 008°29'0 0.0
2015-Jan-27 09:33N 53°20' E 008°29'0 0.0
2015-Jan-27 06:17N 53°20' E 008°29'0 0.0
2015-Jan-27 04:25N 53°20' E 008°29'0 0.0
2015-Jan-27 03:15N 53°20' E 008°29'0 0.0
2015-Jan-27 02:21N 53°20' E 008°29'0 0.0
2015-Jan-27 01:33N 53°20' E 008°29'0 0.0
2015-Jan-27 00:33N 53°20' E 008°29'0 0.0
2015-Jan-26 23:20N 53°20' E 008°29'0 0.0
2015-Jan-26 22:20N 53°20' E 008°29'0 0.0
2015-Jan-26 21:25N 53°20' E 008°29'0 0.0
2015-Jan-26 20:28N 53°20' E 008°29'0 0.0
2015-Jan-26 19:32N 53°20' E 008°29'0 0.0
2015-Jan-26 18:13N 53°20' E 008°29'0 0.0
2015-Jan-26 17:31N 53°20' E 008°29'0 0.0
2015-Jan-26 15:31N 53°20' E 008°29'0 0.0
2015-Jan-26 14:31N 53°20' E 008°29'0 0.0
2015-Jan-26 13:33N 53°20' E 008°29'0 0.0
2015-Jan-26 12:33N 53°20' E 008°29'0 0.0
2015-Jan-26 11:14N 53°20' E 008°29'0 0.0
2015-Jan-26 10:14N 53°20' E 008°29'0 0.0
2015-Jan-26 09:31N 53°20' E 008°29'0 0.0
2015-Jan-26 08:04N 53°20' E 008°29'0 0.0
2015-Jan-26 07:21N 53°20' E 008°29'0 0.0
2015-Jan-26 06:33N 53°20' E 008°29'0 0.0
2015-Jan-26 05:30N 53°20' E 008°29'0 0.0
2015-Jan-26 04:29N 53°20' E 008°29'0 0.0
2015-Jan-26 03:26N 53°20' E 008°29'0 0.0
2015-Jan-26 02:31N 53°20' E 008°29'0 0.0
2015-Jan-25 21:26N 53°20' E 008°29'0 0.0
2015-Jan-25 20:29N 53°20' E 008°29'0 0.0
2015-Jan-25 19:29N 53°20' E 008°29'0 0.0
2015-Jan-25 18:32N 53°20' E 008°29'0 0.0
2015-Jan-25 17:28N 53°20' E 008°29'0 0.0
2015-Jan-25 16:32N 53°20' E 008°29'0 0.0
2015-Jan-25 15:20N 53°20' E 008°29'0 0.0
2015-Jan-25 14:28N 53°20' E 008°29'0 0.0
2015-Jan-25 13:28N 53°20' E 008°29'0 0.0
2015-Jan-25 12:33N 53°20' E 008°29'0 0.0
2015-Jan-25 11:33N 53°20' E 008°29'0 0.0
2015-Jan-25 10:33N 53°20' E 008°29'7 7.4
2015-Jan-25 09:33N 53°12' E 008°30'9 9.0
2015-Jan-25 08:33N 53°07' E 008°43'1 1.0
2015-Jan-25 07:32N 53°07' E 008°44'0 0.0
2015-Jan-25 06:31N 53°07' E 008°44'0 0.0
2015-Jan-25 05:31N 53°07' E 008°44'0 0.0
2015-Jan-25 04:33N 53°07' E 008°44'0 0.0
2015-Jan-25 03:33N 53°07' E 008°44'0 0.0
2015-Jan-25 02:32N 53°07' E 008°44'0 0.0
2015-Jan-25 01:32N 53°07' E 008°44'0 0.0
2015-Jan-25 00:32N 53°07' E 008°44'0 0.0
2015-Jan-24 23:31N 53°07' E 008°44'0 0.0
2015-Jan-24 22:31N 53°07' E 008°44'0 0.0
2015-Jan-24 21:33N 53°07' E 008°44'0 0.0
2015-Jan-24 20:33N 53°07' E 008°44'0 0.0
2015-Jan-24 19:32N 53°07' E 008°44'0 0.0
2015-Jan-24 18:32N 53°07' E 008°44'0 0.0
2015-Jan-24 17:32N 53°07' E 008°44'0 0.0
2015-Jan-24 16:31N 53°07' E 008°44'0 0.0
2015-Jan-24 15:31N 53°07' E 008°44'0 0.0
2015-Jan-24 14:33N 53°07' E 008°44'0 0.0
2015-Jan-24 13:33N 53°07' E 008°44'0 0.0
2015-Jan-24 12:32N 53°07' E 008°44'0 0.0
2015-Jan-24 11:29N 53°07' E 008°44'0 0.0
2015-Jan-24 10:32N 53°07' E 008°44'0 0.0
2015-Jan-24 09:31N 53°07' E 008°44'0 0.0
2015-Jan-24 08:31N 53°07' E 008°44'0 0.0
2015-Jan-24 07:33N 53°07' E 008°44'0 0.0
2015-Jan-24 06:33N 53°07' E 008°44'0 0.0
2015-Jan-24 05:32N 53°07' E 008°44'0 0.0
2015-Jan-24 04:32N 53°07' E 008°44'0 0.0
2015-Jan-24 03:31N 53°07' E 008°44'0 0.0
2015-Jan-24 02:31N 53°07' E 008°44'0 0.0
2015-Jan-24 01:31N 53°07' E 008°44'0 0.0
2015-Jan-24 00:33N 53°07' E 008°44'0 0.0
2015-Jan-23 23:33N 53°07' E 008°44'0 0.0
2015-Jan-23 22:32N 53°07' E 008°44'0 0.0
2015-Jan-23 21:32N 53°07' E 008°44'0 0.0
2015-Jan-23 20:32N 53°07' E 008°44'0 0.0
2015-Jan-23 19:31N 53°07' E 008°44'0 0.0
2015-Jan-23 18:31N 53°07' E 008°44'0 0.0
2015-Jan-23 17:33N 53°07' E 008°44'0 0.0
2015-Jan-23 16:33N 53°07' E 008°44'0 0.0
2015-Jan-23 15:32N 53°07' E 008°44'0 0.0
2015-Jan-23 14:31N 53°07' E 008°44'0 0.0
2015-Jan-23 13:33N 53°07' E 008°44'0 0.0
2015-Jan-23 12:33N 53°07' E 008°44'0 0.0
2015-Jan-23 11:32N 53°07' E 008°44'0 0.0
2015-Jan-23 10:32N 53°07' E 008°44'0 0.0
2015-Jan-23 09:31N 53°07' E 008°44'0 0.0
2015-Jan-23 08:31N 53°07' E 008°44'0 0.0
2015-Jan-23 07:34N 53°07' E 008°44'0 0.0
2015-Jan-23 06:33N 53°07' E 008°44'0 0.0
2015-Jan-23 05:30N 53°07' E 008°44'0 0.0
2015-Jan-23 04:32N 53°07' E 008°44'0 0.0
2015-Jan-23 03:32N 53°07' E 008°44'0 0.0
2015-Jan-23 02:32N 53°07' E 008°44'0 0.0
2015-Jan-23 01:28N 53°07' E 008°44'0 0.0
2015-Jan-23 00:33N 53°07' E 008°44'0 0.0
2015-Jan-22 23:33N 53°07' E 008°44'0 0.0
2015-Jan-22 22:33N 53°07' E 008°44'0 0.0
2015-Jan-22 21:32N 53°07' E 008°44'0 0.0
2015-Jan-22 20:32N 53°07' E 008°44'0 0.0
2015-Jan-22 19:31N 53°07' E 008°44'0 0.0
2015-Jan-22 18:31N 53°07' E 008°44'0 0.0
2015-Jan-22 17:33N 53°07' E 008°44'0 0.0
2015-Jan-22 16:33N 53°07' E 008°44'0 0.0
2015-Jan-22 15:33N 53°07' E 008°44'0 0.0
2015-Jan-22 14:32N 53°07' E 008°44'0 0.0
2015-Jan-22 13:32N 53°07' E 008°44'0 0.0
2015-Jan-22 12:31N 53°07' E 008°44'0 0.0
2015-Jan-22 11:31N 53°07' E 008°44'0 0.0
2015-Jan-22 10:33N 53°07' E 008°44'0 0.0
2015-Jan-22 09:33N 53°07' E 008°44'0 0.1
2015-Jan-22 08:33N 53°07' E 008°44'1 0.8
2015-Jan-22 07:29N 53°08' E 008°43'0 0.0
2015-Jan-22 06:29N 53°08' E 008°43'0 0.0
2015-Jan-22 05:31N 53°08' E 008°43'0 0.0
2015-Jan-22 04:31N 53°08' E 008°43'0 0.0
2015-Jan-22 03:33N 53°08' E 008°43'0 0.0
2015-Jan-22 02:27N 53°08' E 008°43'0 0.0
2015-Jan-22 01:33N 53°08' E 008°43'0 0.0
2015-Jan-22 00:32N 53°08' E 008°43'0 0.0
2015-Jan-21 23:32N 53°08' E 008°43'0 0.0
2015-Jan-21 22:49N 53°08' E 008°43'0 0.0
2015-Jan-21 22:46N 53°08' E 008°43'0 0.0
2015-Jan-21 22:31N 53°08' E 008°43'0 0.0
2015-Jan-21 21:31N 53°08' E 008°43'0 0.0
2015-Jan-21 20:33N 53°08' E 008°43'0 0.0
2015-Jan-21 19:33N 53°08' E 008°43'0 0.0
2015-Jan-21 18:33N 53°08' E 008°43'0 0.0
2015-Jan-21 17:32N 53°08' E 008°43'0 0.0
2015-Jan-21 16:32N 53°08' E 008°43'0 0.0
2015-Jan-21 15:31N 53°08' E 008°43'0 0.0
2015-Jan-21 14:31N 53°08' E 008°43'0 0.0
2015-Jan-21 13:31N 53°08' E 008°43'0 0.0
2015-Jan-21 12:31N 53°08' E 008°43'0 0.0
2015-Jan-21 11:31N 53°08' E 008°43'0 0.0
2015-Jan-21 10:33N 53°08' E 008°43'0 0.0
2015-Jan-21 09:33N 53°08' E 008°43'0 0.0
2015-Jan-21 08:32N 53°08' E 008°43'0 0.0
2015-Jan-21 07:32N 53°08' E 008°43'0 0.0
2015-Jan-21 06:31N 53°08' E 008°43'0 0.0
2015-Jan-21 05:31N 53°08' E 008°43'0 0.0
2015-Jan-21 04:31N 53°08' E 008°43'0 0.0
2015-Jan-21 03:33N 53°08' E 008°43'0 0.0
2015-Jan-21 02:33N 53°08' E 008°43'0 0.0
2015-Jan-21 01:32N 53°08' E 008°43'0 0.0
2015-Jan-21 00:32N 53°08' E 008°43'0 0.0
2015-Jan-20 23:31N 53°08' E 008°43'0 0.0
2015-Jan-20 22:31N 53°08' E 008°43'0 0.0
2015-Jan-20 21:31N 53°08' E 008°43'0 0.0
2015-Jan-20 20:33N 53°08' E 008°43'0 0.0
2015-Jan-20 19:33N 53°08' E 008°43'0 0.0
2015-Jan-20 18:32N 53°08' E 008°43'  

Dump ship's entire track history